Time;durP1;ratioP1;P1;durP2;ratioP2;P2;SDS_P1;SDS_P2;PMS_P1;PMS_P2;Temp;Humidity;BMP_temperature;BMP_pressure;BME280_temperature;BME280_humidity;BME280_pressure;Samples;Min_cycle;Max_cycle;Signal;HPM_P1;HPM_P2
2023/04/07 00:01:03;;;;;;;13.25;8.18;;;11.50;57.90;;;;;;4962352;28;20055;-84
2023/04/07 00:03:30;;;;;;;15.45;9.50;;;11.50;57.90;;;;;;4960490;28;20843;-85
2023/04/07 00:05:59;;;;;;;11.10;8.18;;;11.50;57.90;;;;;;4962607;28;20046;-84
2023/04/07 00:08:26;;;;;;;13.00;8.88;;;11.50;58.00;;;;;;4962157;28;20061;-84
2023/04/07 00:10:53;;;;;;;12.27;9.32;;;11.50;58.00;;;;;;4962708;28;20062;-84
2023/04/07 00:13:21;;;;;;;11.63;8.70;;;11.50;58.10;;;;;;4964492;28;20491;-84
2023/04/07 00:15:48;;;;;;;15.55;9.88;;;11.50;58.10;;;;;;4966740;28;20499;-85
2023/04/07 00:18:15;;;;;;;12.00;8.50;;;11.50;58.10;;;;;;4966280;28;20062;-86
2023/04/07 00:20:42;;;;;;;12.07;8.50;;;11.50;58.10;;;;;;4965243;28;20062;-84
2023/04/07 00:23:11;;;;;;;13.40;8.45;;;11.50;58.10;;;;;;4965335;28;20066;-85
2023/04/07 00:25:38;;;;;;;13.45;9.23;;;11.50;58.10;;;;;;4963332;28;20062;-84
2023/04/07 00:28:06;;;;;;;14.38;9.45;;;11.50;58.20;;;;;;4965862;28;20059;-87
2023/04/07 00:30:33;;;;;;;15.57;10.38;;;11.50;58.20;;;;;;4964812;28;20066;-86
2023/04/07 00:33:00;;;;;;;14.02;9.70;;;11.50;58.20;;;;;;4965666;28;20502;-84
2023/04/07 00:35:27;;;;;;;13.30;9.25;;;11.50;58.30;;;;;;4963766;28;20483;-84
2023/04/07 00:37:55;;;;;;;11.43;8.35;;;11.50;58.30;;;;;;4965571;28;20051;-84
2023/04/07 00:40:24;;;;;;;12.85;8.77;;;11.50;58.20;;;;;;4965426;28;20073;-85
2023/04/07 00:42:52;;;;;;;13.35;9.25;;;11.50;58.30;;;;;;4966600;28;20876;-85
2023/04/07 00:45:20;;;;;;;16.15;10.32;;;11.50;58.30;;;;;;4965695;28;20502;-85
2023/04/07 00:47:47;;;;;;;14.73;9.57;;;11.60;58.40;;;;;;4965340;28;20056;-86
2023/04/07 00:50:15;;;;;;;13.40;9.23;;;11.60;58.40;;;;;;4963499;28;20050;-85
2023/04/07 00:52:42;;;;;;;18.27;9.63;;;11.50;58.30;;;;;;4965437;28;20526;-84
2023/04/07 00:55:10;;;;;;;13.32;9.18;;;11.50;58.20;;;;;;4965231;28;20049;-85
2023/04/07 00:57:38;;;;;;;14.40;10.13;;;11.60;58.20;;;;;;4964559;28;20428;-84
2023/04/07 01:00:07;;;;;;;14.77;9.32;;;11.60;58.30;;;;;;4963875;28;20478;-87
2023/04/07 01:02:41;;;;;;;14.20;9.55;;;11.60;58.30;;;;;;4987527;23;20042;-44
2023/04/07 01:05:16;;;;;;;15.13;8.88;;;11.60;58.30;;;;;;4976423;28;20050;-44
2023/04/07 01:07:52;;;;;;;12.17;9.13;;;11.60;58.30;;;;;;4982721;28;20061;-46
2023/04/07 01:10:27;;;;;;;16.10;9.75;;;11.60;58.30;;;;;;4982479;28;20057;-45
2023/04/07 01:13:02;;;;;;;19.08;10.30;;;11.60;58.40;;;;;;4980379;28;20073;-44
2023/04/07 01:15:31;;;;;;;13.35;8.95;;;11.60;58.40;;;;;;4981789;28;20054;-45
2023/04/07 01:18:06;;;;;;;12.40;8.18;;;11.60;58.20;;;;;;4981785;28;20054;-45
2023/04/07 01:20:35;;;;;;;11.80;8.43;;;11.60;58.20;;;;;;4978432;28;21034;-45
2023/04/07 01:23:07;;;;;;;15.20;9.52;;;11.60;58.20;;;;;;4981324;28;20049;-44
2023/04/07 01:25:52;;;;;;;12.93;8.85;;;11.60;58.20;;;;;;4980333;28;20065;-46
2023/04/07 01:28:41;;;;;;;10.30;7.97;;;11.60;58.20;;;;;;4980764;28;20512;-44
2023/04/07 01:31:12;;;;;;;13.63;8.77;;;11.60;58.20;;;;;;4981488;28;20054;-48
2023/04/07 01:33:40;;;;;;;13.40;8.73;;;11.70;58.10;;;;;;4980628;28;20125;-44
2023/04/07 01:36:09;;;;;;;15.43;8.52;;;11.70;58.10;;;;;;4981204;28;20053;-43
2023/04/07 01:38:38;;;;;;;13.32;8.10;;;11.70;58.10;;;;;;4978610;28;20493;-45
2023/04/07 01:41:08;;;;;;;12.85;9.13;;;11.70;58.10;;;;;;4979749;28;20417;-48
2023/04/07 01:43:39;;;;;;;11.60;8.68;;;11.70;58.10;;;;;;4980552;28;20065;-45
2023/04/07 01:46:06;;;;;;;13.88;8.10;;;11.70;58.10;;;;;;4979972;28;20050;-46
2023/04/07 01:48:35;;;;;;;13.73;9.15;;;11.70;58.00;;;;;;4977351;28;20069;-45
2023/04/07 01:51:05;;;;;;;13.63;8.70;;;11.70;58.10;;;;;;4981021;28;20054;-48
2023/04/07 01:53:36;;;;;;;12.68;8.25;;;11.70;58.00;;;;;;4982364;28;20490;-45
2023/04/07 01:56:04;;;;;;;12.98;8.13;;;11.80;58.00;;;;;;4981461;28;20050;-47
2023/04/07 01:58:31;;;;;;;10.60;8.50;;;11.80;58.10;;;;;;4979963;28;20709;-44
2023/04/07 02:00:59;;;;;;;10.68;8.23;;;11.80;58.10;;;;;;4974239;28;20062;-44
2023/04/07 02:03:31;;;;;;;10.82;7.95;;;11.80;58.10;;;;;;4965009;28;20054;-44
2023/04/07 02:06:06;;;;;;;12.05;8.45;;;11.80;58.10;;;;;;4963577;28;20054;-46
2023/04/07 02:08:36;;;;;;;12.90;8.18;;;11.80;58.10;;;;;;4964818;28;20054;-44
2023/04/07 02:11:06;;;;;;;10.70;8.07;;;11.80;58.10;;;;;;4964411;28;20416;-45
2023/04/07 02:13:35;;;;;;;10.73;7.90;;;11.80;58.10;;;;;;4964501;28;20069;-44
2023/04/07 02:16:02;;;;;;;10.45;7.32;;;11.80;58.00;;;;;;4964199;28;20054;-44
2023/04/07 02:18:31;;;;;;;10.10;6.85;;;11.80;58.00;;;;;;4962534;28;20054;-46
2023/04/07 02:21:01;;;;;;;10.07;6.88;;;11.80;58.00;;;;;;4964694;28;20054;-46
2023/04/07 02:23:29;;;;;;;10.32;6.93;;;11.90;58.10;;;;;;4965820;28;20065;-44
2023/04/07 02:25:57;;;;;;;9.73;6.97;;;11.80;58.00;;;;;;4963124;28;20399;-45
2023/04/07 02:28:24;;;;;;;10.43;7.32;;;11.80;58.10;;;;;;4965370;28;20058;-44
2023/04/07 02:30:52;;;;;;;13.10;7.55;;;11.80;58.10;;;;;;4964259;28;20050;-44
2023/04/07 02:33:19;;;;;;;8.45;5.85;;;11.90;58.20;;;;;;4964511;28;20094;-44
2023/04/07 02:35:46;;;;;;;8.45;5.95;;;11.90;58.20;;;;;;4964781;28;20053;-44
2023/04/07 02:38:15;;;;;;;8.63;6.43;;;11.90;58.20;;;;;;4966055;28;20054;-45
2023/04/07 02:40:42;;;;;;;9.18;6.35;;;11.90;58.30;;;;;;4966886;28;20406;-45
2023/04/07 02:43:09;;;;;;;8.60;6.20;;;11.90;58.30;;;;;;4963347;28;20062;-44
2023/04/07 02:45:36;;;;;;;7.95;5.70;;;11.90;58.30;;;;;;4958390;28;20050;-46
2023/04/07 02:48:04;;;;;;;9.45;6.40;;;11.90;58.30;;;;;;4964283;28;20051;-44
2023/04/07 02:50:31;;;;;;;7.85;5.32;;;11.90;58.30;;;;;;4962468;28;20407;-45
2023/04/07 02:52:58;;;;;;;7.35;5.57;;;12.00;58.40;;;;;;4963009;28;20050;-45
2023/04/07 02:55:27;;;;;;;6.55;4.80;;;12.00;58.40;;;;;;4964904;28;20085;-46
2023/04/07 02:57:54;;;;;;;6.63;4.63;;;12.00;58.40;;;;;;4965454;28;20054;-45
2023/04/07 03:00:21;;;;;;;6.15;4.70;;;12.00;58.40;;;;;;4963934;28;20046;-45
2023/04/07 03:02:48;;;;;;;6.65;3.88;;;12.00;58.40;;;;;;4964056;28;20414;-44
2023/04/07 03:05:16;;;;;;;5.68;4.10;;;12.00;58.40;;;;;;4964847;28;20054;-43
2023/04/07 03:07:43;;;;;;;4.18;3.33;;;12.00;58.40;;;;;;4964496;28;20059;-47
2023/04/07 03:10:10;;;;;;;4.38;3.70;;;12.00;58.50;;;;;;4964844;28;20050;-44
2023/04/07 03:12:39;;;;;;;4.82;3.97;;;12.00;58.60;;;;;;4964071;28;20491;-45
2023/04/07 03:15:07;;;;;;;6.85;5.40;;;12.00;58.60;;;;;;4963079;28;20054;-44
2023/04/07 03:17:35;;;;;;;8.43;6.80;;;12.00;58.70;;;;;;4964345;28;20055;-44
2023/04/07 03:20:02;;;;;;;9.07;7.18;;;12.00;58.80;;;;;;4961532;28;20050;-46
2023/04/07 03:22:29;;;;;;;11.00;8.38;;;12.00;59.00;;;;;;4962664;28;20054;-46
2023/04/07 03:24:56;;;;;;;10.55;7.85;;;12.00;59.20;;;;;;4965701;28;20061;-45
2023/04/07 03:27:24;;;;;;;10.38;8.75;;;12.00;59.20;;;;;;4963096;28;20042;-44
2023/04/07 03:29:52;;;;;;;12.70;9.80;;;12.00;59.40;;;;;;4962625;28;20490;-45
2023/04/07 03:32:20;;;;;;;11.75;8.95;;;12.00;59.60;;;;;;4964266;28;20077;-44
2023/04/07 03:34:47;;;;;;;13.20;10.15;;;12.00;59.70;;;;;;4963285;28;20407;-45
2023/04/07 03:37:14;;;;;;;21.02;13.43;;;12.00;59.70;;;;;;4965046;28;20062;-44
2023/04/07 03:39:41;;;;;;;15.60;11.48;;;12.00;60.00;;;;;;4962378;28;20503;-43
2023/04/07 03:42:09;;;;;;;16.63;11.80;;;12.00;60.00;;;;;;4962232;28;20050;-44
2023/04/07 03:44:36;;;;;;;18.10;12.77;;;12.00;60.10;;;;;;4962301;28;20058;-44
2023/04/07 03:47:05;;;;;;;21.00;14.70;;;12.00;60.30;;;;;;4962590;28;20051;-44
2023/04/07 03:49:32;;;;;;;21.17;14.77;;;12.00;60.60;;;;;;4960955;28;20053;-45
2023/04/07 03:51:59;;;;;;;18.13;13.50;;;12.00;60.80;;;;;;4963994;28;20794;-46
2023/04/07 03:54:26;;;;;;;19.38;13.50;;;12.00;61.30;;;;;;4963667;28;20055;-46
2023/04/07 03:56:53;;;;;;;19.17;14.20;;;11.90;61.90;;;;;;4962742;28;20050;-50
2023/04/07 03:59:21;;;;;;;19.58;13.88;;;11.90;61.80;;;;;;4962372;28;20062;-46
2023/04/07 04:01:48;;;;;;;20.13;14.40;;;11.80;61.90;;;;;;4962188;28;20074;-45
2023/04/07 04:04:17;;;;;;;20.13;13.98;;;11.80;61.90;;;;;;4961836;28;20055;-44
2023/04/07 04:06:44;;;;;;;23.02;16.15;;;11.80;62.10;;;;;;4962316;28;20073;-44
2023/04/07 04:09:11;;;;;;;24.23;17.02;;;11.80;62.20;;;;;;4963021;28;20074;-46
2023/04/07 04:11:38;;;;;;;28.17;19.42;;;11.80;62.40;;;;;;4963012;28;20066;-46
2023/04/07 04:14:05;;;;;;;30.02;20.55;;;11.70;62.50;;;;;;4962848;28;20055;-46
2023/04/07 04:16:34;;;;;;;28.75;19.92;;;11.70;62.60;;;;;;4959576;28;20055;-47
2023/04/07 04:19:01;;;;;;;29.77;20.17;;;11.70;63.10;;;;;;4959037;28;20105;-44
2023/04/07 04:21:30;;;;;;;33.00;21.45;;;11.70;62.90;;;;;;4963880;28;20062;-44
2023/04/07 04:23:57;;;;;;;32.83;21.23;;;11.70;62.90;;;;;;4961668;28;20434;-45
2023/04/07 04:26:24;;;;;;;31.73;20.73;;;11.70;63.20;;;;;;4962922;28;20055;-44
2023/04/07 04:28:52;;;;;;;36.72;21.08;;;11.70;63.30;;;;;;4960206;28;20050;-44
2023/04/07 04:31:20;;;;;;;33.47;22.38;;;11.70;63.20;;;;;;4962708;28;20047;-46
2023/04/07 04:33:47;;;;;;;38.80;23.45;;;11.70;63.30;;;;;;4962189;28;20513;-44
2023/04/07 04:36:14;;;;;;;38.10;22.77;;;11.70;63.30;;;;;;4962792;28;20054;-44
2023/04/07 04:38:43;;;;;;;36.53;23.85;;;11.70;63.30;;;;;;4961859;28;20058;-45
2023/04/07 04:41:10;;;;;;;37.78;23.52;;;11.70;64.30;;;;;;4962955;28;20585;-45
2023/04/07 04:43:37;;;;;;;35.65;23.33;;;11.70;63.70;;;;;;4961834;28;20051;-45
2023/04/07 04:46:05;;;;;;;39.10;24.13;;;11.60;63.70;;;;;;4962609;28;20058;-45
2023/04/07 04:48:32;;;;;;;41.45;25.05;;;11.60;63.90;;;;;;4960614;28;20062;-48
2023/04/07 04:50:59;;;;;;;39.95;24.38;;;11.60;63.80;;;;;;4962435;28;20058;-47
2023/04/07 04:53:27;;;;;;;36.78;23.52;;;11.60;64.00;;;;;;4962135;28;20403;-45
2023/04/07 04:55:56;;;;;;;38.92;24.55;;;11.60;64.10;;;;;;4963780;28;20692;-44
2023/04/07 04:58:23;;;;;;;39.85;24.23;;;11.50;64.20;;;;;;4962987;28;20063;-46
2023/04/07 05:00:56;;;;;;;38.63;22.88;;;11.50;64.60;;;;;;4964759;28;20065;-45
2023/04/07 05:03:24;;;;;;;35.47;23.83;;;11.50;64.50;;;;;;4963937;28;20411;-49
2023/04/07 05:05:52;;;;;;;39.03;24.52;;;11.50;64.50;;;;;;4967945;28;20485;-47
2023/04/07 05:08:19;;;;;;;37.47;23.58;;;11.40;64.80;;;;;;4965659;28;20067;-44
2023/04/07 05:10:47;;;;;;;35.53;22.20;;;11.40;64.60;;;;;;4965742;28;20073;-44
2023/04/07 05:13:15;;;;;;;38.80;24.13;;;11.40;64.60;;;;;;4966118;28;20065;-45
2023/04/07 05:15:42;;;;;;;36.33;23.30;;;11.40;65.10;;;;;;4963860;28;20498;-46
2023/04/07 05:18:12;;;;;;;35.92;22.23;;;11.40;64.80;;;;;;4965141;28;20054;-47
2023/04/07 05:20:41;;;;;;;33.08;21.60;;;11.30;64.70;;;;;;4965690;28;20065;-46
2023/04/07 05:23:14;;;;;;;35.03;21.55;;;11.40;64.90;;;;;;4965509;28;20483;-46
2023/04/07 05:25:43;;;;;;;30.75;20.15;;;11.40;65.10;;;;;;4965424;28;20059;-44
2023/04/07 05:28:10;;;;;;;32.75;21.20;;;11.30;64.80;;;;;;4964307;28;20053;-45
2023/04/07 05:30:39;;;;;;;32.95;21.75;;;11.30;64.90;;;;;;4964784;28;20077;-45
2023/04/07 05:33:06;;;;;;;37.53;24.67;;;11.30;65.10;;;;;;4965261;28;20050;-47
2023/04/07 05:35:33;;;;;;;40.10;24.58;;;11.30;65.00;;;;;;4964819;28;20061;-45
2023/04/07 05:38:01;;;;;;;40.67;26.20;;;11.30;65.80;;;;;;4964094;28;20081;-45
2023/04/07 05:40:29;;;;;;;41.38;26.80;;;11.30;65.00;;;;;;4963702;28;20059;-45
2023/04/07 05:42:56;;;;;;;42.92;25.42;;;11.30;65.10;;;;;;4964958;28;20058;-45
2023/04/07 05:45:23;;;;;;;44.45;26.67;;;11.30;65.00;;;;;;4963804;28;20490;-47
2023/04/07 05:47:52;;;;;;;50.30;28.85;;;11.30;65.00;;;;;;4964699;28;20398;-47
2023/04/07 05:50:19;;;;;;;45.42;28.65;;;11.30;65.20;;;;;;4964269;28;20046;-44
2023/04/07 05:52:46;;;;;;;45.92;27.50;;;11.30;65.10;;;;;;4964685;28;20051;-47
2023/04/07 05:55:13;;;;;;;46.00;28.77;;;11.30;65.00;;;;;;4961776;28;20677;-47
2023/04/07 05:57:41;;;;;;;46.40;28.98;;;11.30;65.00;;;;;;4965748;28;20565;-48
2023/04/07 06:00:09;;;;;;;42.22;26.70;;;11.30;65.10;;;;;;4964261;28;20059;-44
2023/04/07 06:02:38;;;;;;;41.53;25.85;;;11.30;65.00;;;;;;4961885;28;20074;-47
2023/04/07 06:05:07;;;;;;;49.38;27.20;;;11.30;65.10;;;;;;4961402;28;20514;-45
2023/04/07 06:07:34;;;;;;;41.42;25.50;;;11.30;65.10;;;;;;4964873;28;20050;-45
2023/04/07 06:10:02;;;;;;;43.72;26.50;;;11.30;65.00;;;;;;4964508;28;20070;-45
2023/04/07 06:12:29;;;;;;;45.75;26.80;;;11.20;65.00;;;;;;4964693;28;20050;-48
2023/04/07 06:14:57;;;;;;;44.22;26.77;;;11.30;65.10;;;;;;4964886;28;20059;-47
2023/04/07 06:17:24;;;;;;;47.00;27.35;;;11.30;65.10;;;;;;4961869;28;20085;-44
2023/04/07 06:19:52;;;;;;;42.22;26.70;;;11.20;65.20;;;;;;4961815;28;20498;-47
2023/04/07 06:22:20;;;;;;;46.53;26.73;;;11.20;65.00;;;;;;4964752;28;20054;-49
2023/04/07 06:24:47;;;;;;;45.03;26.30;;;11.20;65.40;;;;;;4961040;28;20046;-44
2023/04/07 06:27:15;;;;;;;45.05;25.33;;;11.20;65.20;;;;;;4965220;28;20495;-44
2023/04/07 06:29:42;;;;;;;39.90;25.40;;;11.20;65.30;;;;;;4964266;28;20058;-44
2023/04/07 06:32:09;;;;;;;36.60;22.70;;;11.10;66.00;;;;;;4964467;28;20070;-46
2023/04/07 06:34:37;;;;;;;40.65;23.83;;;11.10;65.30;;;;;;4963180;28;20528;-45
2023/04/07 06:37:05;;;;;;;41.97;23.83;;;11.10;65.40;;;;;;4965242;28;20746;-48
2023/04/07 06:39:34;;;;;;;29.67;20.35;;;11.10;65.40;;;;;;4963865;28;20478;-47
2023/04/07 06:42:01;;;;;;;33.47;20.50;;;11.20;65.50;;;;;;4962993;28;20057;-45
2023/04/07 06:44:28;;;;;;;33.55;20.27;;;11.20;65.60;;;;;;4963399;28;20050;-43
2023/04/07 06:46:55;;;;;;;35.83;20.45;;;11.20;65.60;;;;;;4962921;28;20054;-45
2023/04/07 06:49:23;;;;;;;31.88;18.85;;;11.20;65.50;;;;;;4961712;28;20406;-45
2023/04/07 06:51:50;;;;;;;33.88;20.30;;;11.20;65.40;;;;;;4965028;28;20066;-45
2023/04/07 06:54:17;;;;;;;34.03;21.13;;;11.20;65.30;;;;;;4963331;28;20055;-46
2023/04/07 06:56:46;;;;;;;32.33;20.08;;;11.20;65.30;;;;;;4963451;28;20422;-49
2023/04/07 06:59:13;;;;;;;34.33;19.55;;;11.20;65.20;;;;;;4963473;28;20059;-44
2023/04/07 07:01:40;;;;;;;31.73;19.65;;;11.20;65.20;;;;;;4962944;28;20058;-49
2023/04/07 07:04:08;;;;;;;30.35;18.55;;;11.20;65.30;;;;;;4962259;28;20161;-44
2023/04/07 07:06:35;;;;;;;32.35;18.70;;;11.20;65.20;;;;;;4961382;28;20058;-44
2023/04/07 07:09:03;;;;;;;28.67;17.15;;;11.20;65.40;;;;;;4964894;28;20057;-44
2023/04/07 07:11:31;;;;;;;29.92;17.90;;;11.20;65.30;;;;;;4962153;28;20066;-45
2023/04/07 07:13:59;;;;;;;26.13;16.65;;;11.20;65.40;;;;;;4963725;28;20057;-47
2023/04/07 07:16:27;;;;;;;21.60;14.98;;;11.20;65.50;;;;;;4964003;28;20414;-46
2023/04/07 07:18:55;;;;;;;22.48;15.20;;;11.30;65.50;;;;;;4960555;28;20065;-47
2023/04/07 07:21:22;;;;;;;27.20;16.17;;;11.30;65.60;;;;;;4963541;28;20069;-45
2023/04/07 07:23:50;;;;;;;24.88;15.65;;;11.30;65.40;;;;;;4962649;28;20058;-45
2023/04/07 07:26:17;;;;;;;27.38;16.20;;;11.20;65.40;;;;;;4962085;28;20058;-46
2023/04/07 07:28:45;;;;;;;26.80;17.02;;;11.20;65.40;;;;;;4962935;28;20043;-46
2023/04/07 07:31:14;;;;;;;24.92;15.68;;;11.20;65.50;;;;;;4962591;28;20062;-44
2023/04/07 07:33:42;;;;;;;24.77;15.40;;;11.30;65.40;;;;;;4961981;28;20058;-48
2023/04/07 07:36:10;;;;;;;25.70;15.15;;;11.30;65.60;;;;;;4962466;28;20054;-44
2023/04/07 07:38:37;;;;;;;26.77;15.13;;;11.30;65.40;;;;;;4962866;28;20055;-45
2023/04/07 07:41:06;;;;;;;23.80;13.70;;;11.30;65.50;;;;;;4963614;28;20498;-46
2023/04/07 07:43:34;;;;;;;25.92;14.95;;;11.30;65.50;;;;;;4962645;28;20066;-44
2023/04/07 07:46:01;;;;;;;19.08;11.40;;;11.30;65.50;;;;;;4964178;28;20051;-44
2023/04/07 07:48:30;;;;;;;18.10;10.82;;;11.30;65.40;;;;;;4961813;28;20050;-44
2023/04/07 07:50:57;;;;;;;17.85;10.43;;;11.30;65.30;;;;;;4965630;28;20061;-44
2023/04/07 07:53:24;;;;;;;17.27;10.45;;;11.30;65.40;;;;;;4963741;28;20077;-46
2023/04/07 07:55:51;;;;;;;16.73;9.95;;;11.30;65.60;;;;;;4962422;28;20047;-48
2023/04/07 07:58:19;;;;;;;17.17;8.95;;;11.30;65.40;;;;;;4962987;28;20054;-45
2023/04/07 08:00:46;;;;;;;13.90;9.38;;;11.30;65.20;;;;;;4962767;28;20384;-44
2023/04/07 08:03:13;;;;;;;11.57;7.88;;;11.30;65.40;;;;;;4963895;28;20063;-45
2023/04/07 08:05:43;;;;;;;12.57;8.55;;;11.30;66.30;;;;;;4962120;28;20530;-46
2023/04/07 08:08:10;;;;;;;18.92;10.10;;;11.30;65.80;;;;;;4962564;28;20391;-44
2023/04/07 08:10:37;;;;;;;16.23;9.55;;;11.30;65.80;;;;;;4963429;28;20062;-45
2023/04/07 08:13:05;;;;;;;14.02;8.15;;;11.40;66.60;;;;;;4961664;28;20066;-45
2023/04/07 08:15:32;;;;;;;14.52;8.38;;;11.40;65.60;;;;;;4962265;28;20062;-46
2023/04/07 08:18:01;;;;;;;13.10;8.02;;;11.40;65.60;;;;;;4963493;28;20495;-44
2023/04/07 08:20:29;;;;;;;12.85;7.68;;;11.40;65.40;;;;;;4961809;28;20062;-46
2023/04/07 08:22:58;;;;;;;12.52;8.07;;;11.40;65.50;;;;;;4961909;28;20070;-44
2023/04/07 08:25:25;;;;;;;12.50;7.05;;;11.40;65.60;;;;;;4963552;28;20058;-47
2023/04/07 08:27:52;;;;;;;12.15;7.47;;;11.40;65.60;;;;;;4962406;28;20054;-48
2023/04/07 08:30:21;;;;;;;12.95;7.80;;;11.40;65.40;;;;;;4961865;28;20057;-50
2023/04/07 08:32:48;;;;;;;12.23;7.75;;;11.40;65.50;;;;;;4964062;28;20050;-46
2023/04/07 08:35:16;;;;;;;14.90;8.60;;;11.40;65.50;;;;;;4965741;28;20057;-46
2023/04/07 08:37:43;;;;;;;12.65;7.78;;;11.40;65.60;;;;;;4967240;28;20414;-48
2023/04/07 08:40:12;;;;;;;13.00;7.50;;;11.50;65.60;;;;;;4967303;28;20072;-47
2023/04/07 08:42:42;;;;;;;10.13;6.57;;;11.50;65.70;;;;;;4966500;28;20054;-50
2023/04/07 08:45:10;;;;;;;13.82;7.45;;;11.50;65.60;;;;;;4966438;28;20414;-51
2023/04/07 08:47:40;;;;;;;15.95;7.85;;;11.50;65.60;;;;;;4966128;28;20566;-49
2023/04/07 08:50:09;;;;;;;16.67;7.47;;;11.50;65.70;;;;;;4964341;28;20050;-46
2023/04/07 08:52:42;;;;;;;11.05;7.22;;;11.50;65.80;;;;;;4965787;28;20054;-45
2023/04/07 08:55:10;;;;;;;15.07;7.53;;;11.50;65.70;;;;;;4967665;28;20051;-47
2023/04/07 08:57:38;;;;;;;16.75;8.00;;;11.50;65.70;;;;;;4966281;28;20182;-46
2023/04/07 09:00:07;;;;;;;11.65;6.72;;;11.60;65.90;;;;;;4965951;28;20051;-47
2023/04/07 09:02:35;;;;;;;10.25;6.47;;;11.60;66.10;;;;;;4964629;28;20063;-46
2023/04/07 09:05:04;;;;;;;11.68;7.40;;;11.60;66.30;;;;;;4964056;28;20069;-48
2023/04/07 09:07:32;;;;;;;13.43;7.20;;;11.60;66.20;;;;;;4965422;28;20062;-48
2023/04/07 09:10:00;;;;;;;12.73;7.50;;;11.70;66.10;;;;;;4966657;28;20047;-46
2023/04/07 09:12:28;;;;;;;18.23;9.25;;;11.70;66.00;;;;;;4966515;28;20422;-47
2023/04/07 09:14:57;;;;;;;14.13;7.65;;;11.80;65.50;;;;;;4967260;28;20085;-47
2023/04/07 09:17:26;;;;;;;14.35;7.80;;;11.80;65.10;;;;;;4966052;28;20050;-47
2023/04/07 09:19:56;;;;;;;18.30;9.13;;;11.80;65.10;;;;;;4964579;28;20055;-45
2023/04/07 09:22:36;;;;;;;15.35;8.15;;;11.80;64.80;;;;;;4965453;28;20525;-48
2023/04/07 09:25:11;;;;;;;15.68;9.13;;;11.90;64.90;;;;;;4964476;28;20058;-48
2023/04/07 09:27:38;;;;;;;12.57;8.27;;;11.90;64.90;;;;;;4965092;28;20771;-49
2023/04/07 09:30:14;;;;;;;11.68;7.78;;;11.90;64.70;;;;;;4965114;28;20057;-47
2023/04/07 09:32:42;;;;;;;15.52;8.75;;;11.90;64.70;;;;;;4965385;28;20069;-49
2023/04/07 09:35:09;;;;;;;12.93;8.27;;;12.00;64.50;;;;;;4963140;28;20055;-48
2023/04/07 09:37:37;;;;;;;17.98;9.13;;;11.90;64.20;;;;;;4965265;28;20058;-48
2023/04/07 09:40:05;;;;;;;17.77;9.00;;;12.00;64.20;;;;;;4965283;28;20058;-47
2023/04/07 09:42:35;;;;;;;12.43;8.40;;;12.00;64.10;;;;;;4965014;28;20491;-50
2023/04/07 09:45:03;;;;;;;14.40;8.07;;;12.00;64.20;;;;;;4965677;28;20046;-50
2023/04/07 09:47:32;;;;;;;14.98;8.60;;;12.00;64.40;;;;;;4963622;28;20062;-48
2023/04/07 09:50:05;;;;;;;18.27;9.80;;;12.00;64.80;;;;;;4962788;28;20049;-51
2023/04/07 09:52:51;;;;;;;17.42;9.32;;;12.00;64.70;;;;;;4965716;28;20058;-47
2023/04/07 09:55:21;;;;;;;15.95;10.20;;;12.00;64.80;;;;;;4966584;28;20074;-48
2023/04/07 09:57:50;;;;;;;16.98;10.85;;;12.10;64.60;;;;;;4965206;28;20062;-46
2023/04/07 10:00:17;;;;;;;16.38;10.43;;;12.10;64.30;;;;;;4964594;28;20059;-48
2023/04/07 10:02:46;;;;;;;15.80;10.27;;;12.10;64.00;;;;;;4964708;28;20058;-46
2023/04/07 10:05:14;;;;;;;15.93;9.82;;;12.10;63.90;;;;;;4962872;28;20066;-48
2023/04/07 10:07:41;;;;;;;14.52;8.88;;;12.10;63.80;;;;;;4965051;28;20614;-46
2023/04/07 10:10:09;;;;;;;17.40;9.05;;;12.10;63.80;;;;;;4965494;28;20677;-45
2023/04/07 10:12:38;;;;;;;17.17;10.02;;;12.10;63.80;;;;;;4963847;28;20061;-49
2023/04/07 10:15:06;;;;;;;16.98;8.88;;;12.10;63.90;;;;;;4964364;28;20054;-46
2023/04/07 10:17:36;;;;;;;16.70;9.20;;;12.10;64.00;;;;;;4965870;28;20411;-47
2023/04/07 10:20:09;;;;;;;14.05;9.10;;;12.10;64.00;;;;;;4964864;28;20058;-46
2023/04/07 10:22:38;;;;;;;17.33;9.85;;;12.20;64.30;;;;;;4965309;28;20055;-47
2023/04/07 10:25:09;;;;;;;14.13;8.77;;;12.20;64.40;;;;;;4964096;28;20261;-46
2023/04/07 10:27:41;;;;;;;15.45;8.32;;;12.20;64.10;;;;;;4963591;28;20058;-47
2023/04/07 10:30:15;;;;;;;15.18;9.15;;;12.20;64.00;;;;;;4963111;28;20046;-47
2023/04/07 10:32:47;;;;;;;16.13;9.13;;;12.20;64.10;;;;;;4964540;28;20082;-46
2023/04/07 10:35:17;;;;;;;19.42;10.52;;;12.20;64.40;;;;;;4963537;28;20506;-49
2023/04/07 10:38:20;;;;;;;18.83;10.40;;;12.20;64.60;;;;;;4964175;28;20066;-49
2023/04/07 10:40:47;;;;;;;17.55;10.75;;;12.30;65.00;;;;;;4961745;28;20050;-49
2023/04/07 10:43:38;;;;;;;19.75;11.18;;;12.30;64.60;;;;;;4963582;28;20085;-48
2023/04/07 10:46:05;;;;;;;17.02;10.93;;;12.30;64.20;;;;;;4964238;28;20062;-46
2023/04/07 10:48:33;;;;;;;14.85;10.13;;;12.30;63.90;;;;;;4962923;28;20051;-51
2023/04/07 10:51:17;;;;;;;16.15;10.07;;;12.30;64.10;;;;;;4964128;28;20050;-48
2023/04/07 10:54:19;;;;;;;18.63;10.30;;;12.40;64.80;;;;;;4962046;28;20391;-47
2023/04/07 10:57:06;;;;;;;22.50;11.48;;;12.40;64.60;;;;;;4963819;28;20067;-50
2023/04/07 10:59:34;;;;;;;18.50;10.30;;;12.40;64.10;;;;;;4952462;28;20059;-46
2023/04/07 11:02:32;;;;;;;17.00;10.10;;;12.40;64.20;;;;;;4962711;28;20061;-47
2023/04/07 11:05:00;;;;;;;19.90;10.35;;;12.50;64.60;;;;;;4961965;28;20069;-46
2023/04/07 11:07:49;;;;;;;17.02;9.68;;;12.50;64.70;;;;;;4963045;28;20065;-49
2023/04/07 11:10:18;;;;;;;15.93;9.45;;;12.50;65.60;;;;;;4965981;28;20070;-46
2023/04/07 11:13:01;;;;;;;16.58;9.70;;;12.50;65.30;;;;;;4963627;28;20487;-50
2023/04/07 11:15:28;;;;;;;15.00;9.38;;;12.60;64.70;;;;;;4963529;28;20058;-48
2023/04/07 11:18:10;;;;;;;14.60;9.23;;;12.60;64.40;;;;;;4964366;28;20058;-47
2023/04/07 11:20:46;;;;;;;11.57;7.95;;;12.70;64.60;;;;;;4962438;28;20054;-47
2023/04/07 11:23:15;;;;;;;16.02;9.00;;;12.70;64.70;;;;;;4963250;28;20050;-50
2023/04/07 11:25:44;;;;;;;13.27;8.15;;;12.70;64.50;;;;;;4965367;28;20414;-47
2023/04/07 11:28:12;;;;;;;13.45;8.30;;;12.80;64.30;;;;;;4964541;28;20427;-49
2023/04/07 11:30:45;;;;;;;11.27;7.88;;;12.80;64.20;;;;;;4963585;28;20050;-48
2023/04/07 11:33:17;;;;;;;14.95;8.82;;;12.80;64.20;;;;;;4962573;28;20058;-47
2023/04/07 11:35:52;;;;;;;13.27;7.97;;;12.80;63.70;;;;;;4962725;28;20044;-49
2023/04/07 11:38:22;;;;;;;13.30;8.15;;;12.80;63.30;;;;;;4961663;28;20061;-49
2023/04/07 11:40:49;;;;;;;13.55;8.30;;;12.80;63.40;;;;;;4964566;28;20054;-48
2023/04/07 11:43:18;;;;;;;12.32;8.50;;;12.80;63.40;;;;;;4962801;28;20062;-48
2023/04/07 11:45:46;;;;;;;13.80;9.95;;;12.90;63.90;;;;;;4964003;28;20059;-46
2023/04/07 11:48:29;;;;;;;14.25;8.57;;;12.90;63.90;;;;;;4963141;28;20518;-50
2023/04/07 11:50:57;;;;;;;13.60;8.53;;;12.90;63.70;;;;;;4964090;28;20051;-47
2023/04/07 11:53:30;;;;;;;14.02;7.68;;;12.90;63.50;;;;;;4962965;28;20562;-49
2023/04/07 11:56:05;;;;;;;13.90;9.23;;;12.90;63.50;;;;;;4964076;28;20124;-49
2023/04/07 11:58:32;;;;;;;18.35;9.30;;;12.90;63.70;;;;;;4961772;28;20059;-46
2023/04/07 12:01:04;;;;;;;15.52;10.07;;;13.00;63.50;;;;;;4964685;28;20054;-49
2023/04/07 12:03:32;;;;;;;20.58;11.50;;;13.00;63.50;;;;;;4961382;28;20054;-47
2023/04/07 12:06:00;;;;;;;21.20;12.05;;;13.00;63.10;;;;;;4962669;28;20058;-50
2023/04/07 12:08:46;;;;;;;22.42;13.65;;;13.00;62.80;;;;;;4963375;28;20249;-48
2023/04/07 12:11:13;;;;;;;18.73;12.75;;;12.90;62.70;;;;;;4967695;28;20496;-48
2023/04/07 12:13:41;;;;;;;19.98;12.52;;;12.90;62.60;;;;;;4966708;28;20069;-46
2023/04/07 12:16:08;;;;;;;24.05;13.82;;;12.90;62.60;;;;;;4967143;28;20388;-47
2023/04/07 12:18:35;;;;;;;22.08;13.40;;;12.90;63.10;;;;;;4965835;28;20058;-46
2023/04/07 12:21:03;;;;;;;20.70;12.55;;;12.90;63.20;;;;;;4967286;28;20057;-47
2023/04/07 12:23:30;;;;;;;23.58;13.32;;;12.90;63.20;;;;;;4968152;28;20059;-49
2023/04/07 12:26:00;;;;;;;19.08;12.35;;;12.90;63.00;;;;;;4964173;28;20058;-46
2023/04/07 12:28:27;;;;;;;21.02;12.80;;;12.90;63.40;;;;;;4966447;28;20058;-48
2023/04/07 12:30:54;;;;;;;21.75;13.15;;;13.00;63.60;;;;;;4967678;28;20055;-46
2023/04/07 12:33:22;;;;;;;21.42;13.15;;;12.90;63.40;;;;;;4965769;28;20055;-49
2023/04/07 12:35:49;;;;;;;23.23;13.95;;;12.90;63.10;;;;;;4966890;28;20093;-49
2023/04/07 12:38:16;;;;;;;21.35;13.82;;;12.90;62.80;;;;;;4966395;28;20630;-48
2023/04/07 12:40:43;;;;;;;23.95;14.60;;;13.00;62.80;;;;;;4967056;28;20430;-49
2023/04/07 12:43:12;;;;;;;24.70;14.25;;;12.90;62.80;;;;;;4965522;28;20056;-51